Time;durP1;ratioP1;P1;durP2;ratioP2;P2;SDS_P1;SDS_P2;PMS_P1;PMS_P2;Temp;Humidity;BMP_temperature;BMP_pressure;BME280_temperature;BME280_humidity;BME280_pressure;Samples;Min_cycle;Max_cycle;Signal;HPM_P1;HPM_P2
2022/10/18 00:01:05;;;;;;;12.85;4.18;;;16.30;99.90;;;;;;5095769;28;20024;-87
2022/10/18 00:03:31;;;;;;;17.10;4.90;;;16.40;99.90;;;;;;5096074;28;20067;-86
2022/10/18 00:05:57;;;;;;;12.15;3.80;;;16.30;99.90;;;;;;5113963;28;20034;-87
2022/10/18 00:08:22;;;;;;;9.32;4.35;;;16.30;99.90;;;;;;5114484;28;20019;-86
2022/10/18 00:10:48;;;;;;;11.30;4.15;;;16.30;99.90;;;;;;5114366;28;20440;-85
2022/10/18 00:13:14;;;;;;;12.60;3.97;;;16.30;99.90;;;;;;5113717;28;20028;-86
2022/10/18 00:15:46;;;;;;;6.60;3.55;;;16.30;99.90;;;;;;5096222;28;20024;-86
2022/10/18 00:18:11;;;;;;;10.00;3.72;;;16.30;99.90;;;;;;5095608;28;20027;-88
2022/10/18 00:20:37;;;;;;;12.80;3.45;;;16.40;99.90;;;;;;5096072;28;20115;-87
2022/10/18 00:23:03;;;;;;;6.18;3.13;;;16.40;99.90;;;;;;5095667;28;20108;-89
2022/10/18 00:25:28;;;;;;;7.90;3.92;;;16.50;99.90;;;;;;5095996;28;20051;-93
2022/10/18 00:27:54;;;;;;;7.32;3.70;;;16.50;99.90;;;;;;5115699;28;20032;-91
2022/10/18 00:30:19;;;;;;;13.82;3.83;;;16.50;99.90;;;;;;5099737;28;20034;-91
2022/10/18 00:32:45;;;;;;;4.80;2.70;;;16.60;99.90;;;;;;5099877;28;20353;-89
2022/10/18 00:35:10;;;;;;;8.20;3.53;;;16.60;99.90;;;;;;5099572;28;20063;-89
2022/10/18 00:37:36;;;;;;;7.22;3.20;;;16.60;99.90;;;;;;5100284;28;20534;-90
2022/10/18 00:40:02;;;;;;;11.55;3.40;;;16.60;99.90;;;;;;5099593;28;20034;-88
2022/10/18 00:42:33;;;;;;;9.70;3.17;;;16.70;99.90;;;;;;5117944;28;20070;-90
2022/10/18 00:45:04;;;;;;;7.13;3.65;;;16.70;99.90;;;;;;5099597;28;20027;-86
2022/10/18 00:47:31;;;;;;;22.88;3.72;;;16.60;99.90;;;;;;5099702;28;20429;-88
2022/10/18 00:50:01;;;;;;;8.90;3.08;;;16.60;99.90;;;;;;5099227;28;20130;-85
2022/10/18 00:52:30;;;;;;;10.00;3.40;;;16.60;99.90;;;;;;5099988;28;20028;-88
2022/10/18 00:54:57;;;;;;;8.23;3.35;;;16.70;99.90;;;;;;5099232;28;20023;-88
2022/10/18 00:57:23;;;;;;;9.02;3.47;;;16.70;99.90;;;;;;5117724;28;20444;-88
2022/10/18 00:59:49;;;;;;;9.95;3.60;;;16.80;99.90;;;;;;5099748;28;20097;-88
2022/10/18 01:02:17;;;;;;;5.32;2.60;;;16.80;99.90;;;;;;5099074;28;20479;-88
2022/10/18 01:04:47;;;;;;;6.18;3.25;;;16.80;99.90;;;;;;5099276;28;20537;-87
2022/10/18 01:07:26;;;;;;;10.23;3.22;;;16.80;99.90;;;;;;5116704;28;20533;-88
2022/10/18 01:10:17;;;;;;;4.50;2.92;;;16.80;99.90;;;;;;5099338;28;20019;-88
2022/10/18 01:12:52;;;;;;;5.30;2.85;;;16.80;99.90;;;;;;5103081;28;20038;-94
2022/10/18 01:15:48;;;;;;;7.70;2.80;;;16.80;99.90;;;;;;5116978;28;20211;-94
2022/10/18 01:18:36;;;;;;;7.38;3.00;;;16.80;99.90;;;;;;5053424;28;20434;-94
2022/10/18 01:21:28;;;;;;;9.00;3.20;;;16.80;99.90;;;;;;5101653;28;20044;-89
2022/10/18 01:24:17;;;;;;;7.38;3.00;;;16.80;99.90;;;;;;5103225;28;20489;-93
2022/10/18 01:27:20;;;;;;;8.85;2.90;;;16.80;99.90;;;;;;5101204;28;20052;-94
2022/10/18 01:30:01;;;;;;;10.30;3.35;;;16.80;99.90;;;;;;5099627;28;20456;-94
2022/10/18 01:32:43;;;;;;;7.70;3.00;;;16.90;99.90;;;;;;5098539;28;20042;-93
2022/10/18 01:35:13;;;;;;;7.30;3.20;;;16.80;99.90;;;;;;5098162;28;20035;-93
2022/10/18 01:37:42;;;;;;;7.28;3.80;;;16.80;99.90;;;;;;5098892;28;20028;-93
2022/10/18 01:40:11;;;;;;;7.10;2.90;;;16.80;99.90;;;;;;5097286;28;20069;-92
2022/10/18 01:42:36;;;;;;;8.63;3.13;;;16.80;99.90;;;;;;5098792;28;20020;-93
2022/10/18 01:45:03;;;;;;;25.05;3.10;;;16.80;99.90;;;;;;5098070;28;20169;-86
2022/10/18 01:47:30;;;;;;;7.15;2.78;;;16.80;99.90;;;;;;5098321;28;20032;-92
2022/10/18 01:50:02;;;;;;;7.75;3.40;;;16.80;99.90;;;;;;5098754;28;20038;-92
2022/10/18 01:52:27;;;;;;;5.03;2.80;;;16.80;99.90;;;;;;5098487;28;20031;-92
2022/10/18 01:54:54;;;;;;;6.10;2.40;;;16.80;99.90;;;;;;5098484;28;20024;-90
2022/10/18 01:57:44;;;;;;;8.30;3.13;;;16.80;99.90;;;;;;5097953;28;20044;-90
2022/10/18 02:00:21;;;;;;;7.13;2.63;;;16.80;99.90;;;;;;5097724;28;20042;-89
2022/10/18 02:03:31;;;;;;;6.70;2.72;;;16.80;99.90;;;;;;5098219;28;20059;-90
2022/10/18 02:06:29;;;;;;;3.90;2.45;;;16.90;99.90;;;;;;5073207;28;20114;-85
2022/10/18 02:09:18;;;;;;;4.30;2.83;;;16.90;99.90;;;;;;5098250;28;20028;-90
2022/10/18 02:11:47;;;;;;;9.05;3.00;;;16.90;99.90;;;;;;5098175;28;20034;-90
2022/10/18 02:14:13;;;;;;;11.27;3.17;;;16.80;99.90;;;;;;5097255;28;20472;-92
2022/10/18 02:16:46;;;;;;;8.80;3.20;;;16.80;99.90;;;;;;5097731;28;20070;-90
2022/10/18 02:19:28;;;;;;;7.97;2.85;;;16.80;99.90;;;;;;5096936;28;20129;-90
2022/10/18 02:21:55;;;;;;;;;;;16.80;99.90;;;;;;5098386;28;20452;-90
2022/10/18 02:24:22;;;;;;;4.53;2.47;;;16.70;99.90;;;;;;5097616;28;20014;-92
2022/10/18 02:26:48;;;;;;;7.78;2.65;;;16.70;99.90;;;;;;5097130;28;20047;-91
2022/10/18 02:29:14;;;;;;;7.35;2.83;;;16.60;99.90;;;;;;5097072;28;20034;-92
2022/10/18 02:31:46;;;;;;;6.72;2.53;;;16.60;99.90;;;;;;5097733;28;20380;-91
2022/10/18 02:34:16;;;;;;;;;;;16.60;99.90;;;;;;5097643;28;20468;-91
2022/10/18 02:36:46;;;;;;;6.07;2.55;;;16.60;99.90;;;;;;5115851;28;19929;-92
2022/10/18 02:39:17;;;;;;;6.88;2.90;;;16.50;99.90;;;;;;5097232;28;20058;-90
2022/10/18 02:41:43;;;;;;;4.70;2.70;;;16.50;99.90;;;;;;5097756;28;20024;-89
2022/10/18 02:44:09;;;;;;;15.57;2.88;;;16.50;99.90;;;;;;5097348;28;20031;-89
2022/10/18 02:46:35;;;;;;;7.30;3.15;;;16.50;99.90;;;;;;5097331;28;20027;-89
2022/10/18 02:49:01;;;;;;;8.55;2.85;;;16.50;99.90;;;;;;5097414;28;20072;-89
2022/10/18 02:51:26;;;;;;;4.55;2.42;;;16.40;99.90;;;;;;5096940;28;20019;-88
2022/10/18 02:53:52;;;;;;;4.90;2.45;;;16.40;99.90;;;;;;5097422;28;20035;-89
2022/10/18 02:56:18;;;;;;;7.93;3.08;;;16.40;99.90;;;;;;5096607;28;20054;-88
2022/10/18 02:58:43;;;;;;;7.40;3.72;;;16.40;99.90;;;;;;5097182;28;20118;-89
2022/10/18 03:01:09;;;;;;;6.05;3.28;;;16.40;99.90;;;;;;5096825;28;20024;-88
2022/10/18 03:03:34;;;;;;;9.07;2.88;;;16.40;99.90;;;;;;5097559;28;20031;-89
2022/10/18 03:06:00;;;;;;;6.78;2.38;;;16.50;99.90;;;;;;5097051;28;20034;-88
2022/10/18 03:08:25;;;;;;;7.60;2.60;;;16.60;99.90;;;;;;5096486;28;20107;-88
2022/10/18 03:10:51;;;;;;;7.38;2.60;;;16.50;99.90;;;;;;5097048;28;20061;-88
2022/10/18 03:13:17;;;;;;;6.10;2.85;;;16.50;99.90;;;;;;5096666;28;20063;-88
2022/10/18 03:15:43;;;;;;;4.70;2.67;;;16.50;99.90;;;;;;5097269;28;20034;-88
2022/10/18 03:18:09;;;;;;;10.23;2.60;;;16.40;99.90;;;;;;5096500;28;20031;-90
2022/10/18 03:20:37;;;;;;;10.27;3.22;;;16.40;99.90;;;;;;5115121;28;20034;-93
2022/10/18 03:23:03;;;;;;;9.77;2.42;;;16.40;99.90;;;;;;5097166;28;20028;-93
2022/10/18 03:25:29;;;;;;;6.40;2.55;;;16.40;99.90;;;;;;5098124;28;20037;-91
2022/10/18 03:27:54;;;;;;;11.57;2.85;;;16.40;99.90;;;;;;5096891;28;20055;-92
2022/10/18 03:30:20;;;;;;;8.25;2.80;;;16.40;99.90;;;;;;5096472;28;20051;-92
2022/10/18 03:32:45;;;;;;;8.38;2.63;;;16.40;99.90;;;;;;5096668;28;20034;-92
2022/10/18 03:35:11;;;;;;;8.55;2.78;;;16.30;99.90;;;;;;5096514;28;20072;-91
2022/10/18 03:37:37;;;;;;;8.23;2.95;;;16.40;99.90;;;;;;5096574;28;20384;-93
2022/10/18 03:40:03;;;;;;;10.48;2.50;;;16.40;99.90;;;;;;5096939;28;20031;-92
2022/10/18 03:42:31;;;;;;;5.53;2.60;;;16.30;99.90;;;;;;5096554;28;20642;-93
2022/10/18 03:44:56;;;;;;;7.55;3.20;;;16.40;99.90;;;;;;5097084;28;20019;-92
2022/10/18 03:47:22;;;;;;;4.88;2.75;;;16.40;99.90;;;;;;5096810;28;20020;-94
2022/10/18 03:49:48;;;;;;;5.80;2.53;;;16.40;99.90;;;;;;5096922;28;20490;-93
2022/10/18 03:52:13;;;;;;;9.10;2.85;;;16.40;99.90;;;;;;5095799;28;20043;-92
2022/10/18 03:54:39;;;;;;;7.60;2.65;;;16.40;99.90;;;;;;5096381;28;20126;-91
2022/10/18 03:57:04;;;;;;;7.05;2.67;;;16.50;99.90;;;;;;5096177;28;20461;-91
2022/10/18 03:59:30;;;;;;;8.15;2.67;;;16.40;99.90;;;;;;5113645;28;20055;-90
2022/10/18 04:01:56;;;;;;;7.47;2.47;;;16.50;99.90;;;;;;5114500;28;20114;-91
2022/10/18 04:04:21;;;;;;;7.35;2.92;;;16.50;99.90;;;;;;5099919;28;20437;-90
2022/10/18 04:06:47;;;;;;;6.90;2.35;;;16.60;99.90;;;;;;5100451;28;20077;-90
2022/10/18 04:09:13;;;;;;;8.55;2.70;;;16.60;99.90;;;;;;5099732;28;20030;-87
2022/10/18 04:11:38;;;;;;;10.38;2.80;;;16.70;99.90;;;;;;5100413;28;20055;-89
2022/10/18 04:14:04;;;;;;;7.70;2.95;;;16.70;99.90;;;;;;5118491;28;20473;-88
2022/10/18 04:16:30;;;;;;;8.82;2.92;;;16.70;99.90;;;;;;5099511;28;20282;-88
2022/10/18 04:18:55;;;;;;;10.15;3.17;;;16.70;99.90;;;;;;5100364;28;20491;-89
2022/10/18 04:21:21;;;;;;;5.57;2.67;;;16.70;99.90;;;;;;5099549;28;20030;-86
2022/10/18 04:23:47;;;;;;;5.65;2.78;;;16.70;99.90;;;;;;5099792;28;20161;-87
2022/10/18 04:26:15;;;;;;;6.80;2.88;;;16.60;99.90;;;;;;5099629;28;20071;-90
2022/10/18 04:28:41;;;;;;;7.03;2.80;;;16.60;99.90;;;;;;5100417;28;20388;-92
2022/10/18 04:31:06;;;;;;;5.25;2.53;;;16.60;99.90;;;;;;5100092;28;20499;-92
2022/10/18 04:33:32;;;;;;;9.30;2.80;;;16.50;99.90;;;;;;5099593;28;20028;-91
2022/10/18 04:35:57;;;;;;;8.40;2.47;;;16.60;99.90;;;;;;5118081;28;20055;-91
2022/10/18 04:38:23;;;;;;;7.75;2.90;;;16.60;99.90;;;;;;5099491;28;20023;-90
2022/10/18 04:40:49;;;;;;;9.52;2.78;;;16.60;99.90;;;;;;5099599;28;20460;-91
2022/10/18 04:43:15;;;;;;;6.80;2.72;;;16.60;99.90;;;;;;5099351;28;20027;-87
2022/10/18 04:45:40;;;;;;;7.68;2.58;;;16.60;99.90;;;;;;5118134;28;20062;-90
2022/10/18 04:48:06;;;;;;;6.78;2.70;;;16.60;99.90;;;;;;5100013;28;20023;-91
2022/10/18 04:50:32;;;;;;;9.07;2.90;;;16.60;99.90;;;;;;5099173;28;20103;-89
2022/10/18 04:52:57;;;;;;;5.82;3.15;;;16.50;99.90;;;;;;5099561;28;20036;-90
2022/10/18 04:55:23;;;;;;;8.00;3.22;;;16.50;99.90;;;;;;5099030;28;20035;-91
2022/10/18 04:57:48;;;;;;;5.57;3.10;;;16.50;99.90;;;;;;5099479;28;20526;-90
2022/10/18 05:00:14;;;;;;;10.18;3.15;;;16.50;99.90;;;;;;5099200;28;20034;-89
2022/10/18 05:02:40;;;;;;;7.30;3.05;;;16.50;99.90;;;;;;5099293;28;20465;-90
2022/10/18 05:05:06;;;;;;;12.25;3.50;;;16.50;99.90;;;;;;5099677;28;20034;-90
2022/10/18 05:07:31;;;;;;;5.70;3.08;;;16.50;99.90;;;;;;5098884;28;20076;-90
2022/10/18 05:09:57;;;;;;;5.53;3.40;;;16.50;99.90;;;;;;5099090;28;20126;-90
2022/10/18 05:12:23;;;;;;;8.95;3.42;;;16.50;99.90;;;;;;5098871;28;20085;-90
2022/10/18 05:14:48;;;;;;;9.00;2.72;;;16.50;99.90;;;;;;5097868;28;20034;-90
2022/10/18 05:17:14;;;;;;;8.00;3.70;;;16.60;99.90;;;;;;5099225;28;20032;-88
2022/10/18 05:19:39;;;;;;;6.63;3.17;;;16.50;99.90;;;;;;5098999;28;20119;-93
2022/10/18 05:22:05;;;;;;;7.10;3.50;;;16.50;99.90;;;;;;5099132;28;20027;-93
2022/10/18 05:24:31;;;;;;;5.40;2.80;;;16.50;99.90;;;;;;5116506;28;20032;-92
2022/10/18 05:26:57;;;;;;;7.45;2.97;;;16.50;99.90;;;;;;5099088;28;20101;-93
2022/10/18 05:29:23;;;;;;;8.50;3.30;;;16.50;99.90;;;;;;5116279;28;20020;-94
2022/10/18 05:31:49;;;;;;;9.23;3.10;;;16.60;99.90;;;;;;5098717;28;20051;-93
2022/10/18 05:34:15;;;;;;;8.70;3.60;;;16.50;99.90;;;;;;5116827;28;20121;-87
2022/10/18 05:36:40;;;;;;;6.00;3.20;;;16.50;99.90;;;;;;5098648;28;20023;-93
2022/10/18 05:39:06;;;;;;;7.60;3.17;;;16.60;99.90;;;;;;5099048;28;20169;-90
2022/10/18 05:41:31;;;;;;;7.13;3.08;;;16.50;99.90;;;;;;5116227;28;20453;-87
2022/10/18 05:43:57;;;;;;;8.93;3.10;;;16.50;99.90;;;;;;5098896;28;20069;-86
2022/10/18 05:46:23;;;;;;;8.38;3.08;;;16.50;99.90;;;;;;5098741;28;20134;-87
2022/10/18 05:48:50;;;;;;;7.72;3.83;;;16.50;99.90;;;;;;5098543;28;20031;-87
2022/10/18 05:51:16;;;;;;;6.85;3.25;;;16.50;99.90;;;;;;5116368;28;20024;-85
2022/10/18 05:53:42;;;;;;;9.63;3.15;;;16.50;99.90;;;;;;5097869;28;20055;-87
2022/10/18 05:56:10;;;;;;;8.00;2.90;;;16.50;99.90;;;;;;5097792;28;20122;-87
2022/10/18 05:58:36;;;;;;;6.75;3.30;;;16.50;99.90;;;;;;5097431;28;20090;-89
2022/10/18 06:01:04;;;;;;;5.97;2.85;;;16.50;99.90;;;;;;5116062;28;20381;-85
2022/10/18 06:03:30;;;;;;;4.53;2.85;;;16.50;99.90;;;;;;5097604;28;20028;-86
2022/10/18 06:06:05;;;;;;;6.38;3.20;;;16.60;99.90;;;;;;5098189;28;20034;-87
2022/10/18 06:08:31;;;;;;;10.93;3.20;;;16.60;99.90;;;;;;5115653;28;20028;-86
2022/10/18 06:10:57;;;;;;;7.22;3.25;;;16.60;99.90;;;;;;5097925;28;20118;-88
2022/10/18 06:13:23;;;;;;;7.57;2.88;;;16.60;99.90;;;;;;5097123;28;20119;-86
2022/10/18 06:15:49;;;;;;;8.68;3.10;;;16.60;99.90;;;;;;5097952;28;20035;-87
2022/10/18 06:18:15;;;;;;;9.07;3.55;;;16.60;99.90;;;;;;5097795;28;20062;-88
2022/10/18 06:20:41;;;;;;;7.45;2.90;;;16.60;99.90;;;;;;5097395;28;20055;-88
2022/10/18 06:23:06;;;;;;;6.45;3.55;;;16.60;99.90;;;;;;5097908;28;20055;-89
2022/10/18 06:25:32;;;;;;;8.93;3.58;;;16.60;99.90;;;;;;5096459;28;20176;-89
2022/10/18 06:27:57;;;;;;;8.07;3.35;;;16.60;99.90;;;;;;5115961;28;20039;-87
2022/10/18 06:30:23;;;;;;;12.68;3.60;;;16.60;99.90;;;;;;5097442;28;20397;-86
2022/10/18 06:32:48;;;;;;;5.68;3.42;;;16.60;99.90;;;;;;5097812;28;20036;-87
2022/10/18 06:35:14;;;;;;;6.45;3.08;;;16.60;99.90;;;;;;5097377;28;20039;-87
2022/10/18 06:37:40;;;;;;;11.68;3.80;;;16.70;99.90;;;;;;5097296;28;20084;-87
2022/10/18 06:40:06;;;;;;;8.35;3.22;;;16.60;99.90;;;;;;5097221;28;20556;-87
2022/10/18 06:42:31;;;;;;;9.82;3.92;;;16.70;99.90;;;;;;5114824;28;20027;-89
2022/10/18 06:44:57;;;;;;;11.68;3.95;;;16.70;99.90;;;;;;5097127;28;20027;-88
2022/10/18 06:47:23;;;;;;;11.00;3.92;;;16.70;99.90;;;;;;5096880;28;20020;-89
2022/10/18 06:49:48;;;;;;;8.45;3.60;;;16.80;99.90;;;;;;5097319;28;20069;-87
2022/10/18 06:52:19;;;;;;;12.40;3.95;;;16.90;99.90;;;;;;5097297;28;20035;-88
2022/10/18 06:54:48;;;;;;;10.88;3.83;;;16.90;99.90;;;;;;5096583;28;20081;-88
2022/10/18 06:57:13;;;;;;;9.95;4.47;;;17.00;99.90;;;;;;5096988;28;20096;-87
2022/10/18 06:59:39;;;;;;;9.63;3.35;;;17.00;99.90;;;;;;5096465;28;20035;-88
2022/10/18 07:02:05;;;;;;;13.25;3.63;;;17.00;99.90;;;;;;5096871;28;20031;-88
2022/10/18 07:04:30;;;;;;;12.30;3.80;;;17.10;99.90;;;;;;5096384;28;20350;-88
2022/10/18 07:06:58;;;;;;;8.30;3.88;;;17.10;99.90;;;;;;5096828;28;20033;-86
2022/10/18 07:09:24;;;;;;;10.80;3.50;;;17.20;99.90;;;;;;5096451;28;20023;-85
2022/10/18 07:11:49;;;;;;;12.40;3.28;;;17.20;99.90;;;;;;5114778;28;20042;-86
2022/10/18 07:14:15;;;;;;;10.55;3.78;;;17.20;99.90;;;;;;5096708;28;20020;-87
2022/10/18 07:16:40;;;;;;;10.10;4.28;;;17.20;99.90;;;;;;5096473;28;20223;-88
2022/10/18 07:19:06;;;;;;;6.90;3.40;;;17.20;99.90;;;;;;5096979;28;20037;-87
2022/10/18 07:21:31;;;;;;;10.15;3.80;;;17.20;99.90;;;;;;5096034;28;20072;-86
2022/10/18 07:23:57;;;;;;;6.25;3.70;;;17.20;99.90;;;;;;5114762;28;20380;-89
2022/10/18 07:26:29;;;;;;;10.18;3.53;;;17.10;99.90;;;;;;5096247;28;20096;-85
2022/10/18 07:28:56;;;;;;;;;;;17.20;99.90;;;;;;5097242;28;20023;-88
2022/10/18 07:31:23;;;;;;;12.73;3.45;;;17.20;99.90;;;;;;5096420;28;19903;-85
2022/10/18 07:33:48;;;;;;;9.10;3.40;;;17.30;99.90;;;;;;5096101;28;20039;-89
2022/10/18 07:36:14;;;;;;;8.27;3.60;;;17.30;99.90;;;;;;5096213;28;20052;-89
2022/10/18 07:38:40;;;;;;;7.78;4.10;;;17.30;99.90;;;;;;5095402;28;20031;-90
2022/10/18 07:41:07;;;;;;;5.63;3.20;;;17.40;99.90;;;;;;5114518;28;20027;-90
2022/10/18 07:43:34;;;;;;;7.47;3.47;;;17.40;99.90;;;;;;5095947;28;20035;-91
2022/10/18 07:46:02;;;;;;;6.38;3.50;;;17.40;99.90;;;;;;5096763;28;20027;-92
2022/10/18 07:48:28;;;;;;;6.63;3.38;;;17.50;99.90;;;;;;5095555;28;20026;-90
2022/10/18 07:50:57;;;;;;;6.55;3.03;;;17.50;99.90;;;;;;5096706;28;20046;-90
2022/10/18 07:53:23;;;;;;;6.75;3.50;;;17.40;99.90;;;;;;5097411;28;20108;-89
2022/10/18 07:55:49;;;;;;;11.13;3.90;;;17.50;99.90;;;;;;5096315;28;20035;-92
2022/10/18 07:58:14;;;;;;;7.00;3.55;;;17.50;99.90;;;;;;5096677;28;20032;-92
2022/10/18 08:00:40;;;;;;;8.05;3.67;;;17.40;99.90;;;;;;5096148;28;20074;-92
2022/10/18 08:03:06;;;;;;;9.68;3.97;;;17.40;99.90;;;;;;5097255;28;20028;-93
2022/10/18 08:05:32;;;;;;;8.63;3.58;;;17.40;99.90;;;;;;5096767;28;20027;-92
2022/10/18 08:07:58;;;;;;;8.82;3.72;;;17.50;99.90;;;;;;5096717;28;20389;-92
2022/10/18 08:10:23;;;;;;;7.80;4.05;;;17.40;99.90;;;;;;5096511;28;20023;-82
2022/10/18 08:12:50;;;;;;;6.57;3.45;;;17.50;99.90;;;;;;5096569;28;20060;-91
2022/10/18 08:15:16;;;;;;;10.02;3.58;;;17.60;99.90;;;;;;5096255;28;20381;-90
2022/10/18 08:17:43;;;;;;;8.95;3.72;;;17.70;99.90;;;;;;5095831;28;20028;-91
2022/10/18 08:20:11;;;;;;;7.75;3.70;;;17.80;99.90;;;;;;5096098;28;20023;-89
2022/10/18 08:22:37;;;;;;;8.55;3.22;;;17.90;99.90;;;;;;5095282;28;20034;-88
2022/10/18 08:25:03;;;;;;;9.43;3.40;;;18.00;99.90;;;;;;5096011;28;20114;-88
2022/10/18 08:27:31;;;;;;;9.65;3.40;;;18.10;99.90;;;;;;5095331;28;20047;-88
2022/10/18 08:29:58;;;;;;;7.20;3.40;;;18.10;99.90;;;;;;5096054;28;20032;-88
2022/10/18 08:32:24;;;;;;;7.97;3.33;;;18.10;99.90;;;;;;5095667;28;20031;-87
2022/10/18 08:34:50;;;;;;;6.32;3.10;;;18.10;99.90;;;;;;5095778;28;20024;-89
2022/10/18 08:37:16;;;;;;;7.32;3.30;;;18.20;99.90;;;;;;5114067;28;20034;-89
2022/10/18 08:39:58;;;;;;;7.05;3.50;;;18.20;99.90;;;;;;5095359;28;20031;-88
2022/10/18 08:42:53;;;;;;;9.60;4.15;;;18.10;99.90;;;;;;5097540;28;20442;-93
2022/10/18 08:45:20;;;;;;;6.30;2.92;;;18.20;99.90;;;;;;5098032;28;20043;-92
2022/10/18 08:47:48;;;;;;;11.20;3.50;;;18.20;99.90;;;;;;5095843;28;20613;-88
2022/10/18 08:50:16;;;;;;;7.03;3.05;;;18.30;99.90;;;;;;5099618;28;20077;-86
2022/10/18 08:52:54;;;;;;;8.43;3.55;;;18.40;99.90;;;;;;5099065;28;20035;-88
2022/10/18 08:55:25;;;;;;;5.53;3.00;;;18.50;99.90;;;;;;5100262;28;20034;-91
2022/10/18 08:57:51;;;;;;;5.78;3.42;;;18.60;99.90;;;;;;5118903;28;20032;-93
2022/10/18 09:00:20;;;;;;;6.93;3.00;;;18.70;99.90;;;;;;5101969;28;20027;-92
2022/10/18 09:02:52;;;;;;;8.02;2.80;;;18.70;99.90;;;;;;5099798;28;20024;-93
2022/10/18 09:05:36;;;;;;;9.73;3.08;;;18.60;99.90;;;;;;5098841;28;20628;-88
2022/10/18 09:08:23;;;;;;;7.78;3.22;;;18.60;99.90;;;;;;5098964;28;20024;-88
2022/10/18 09:11:22;;;;;;;6.90;3.40;;;18.60;99.90;;;;;;5079724;28;20058;-92
2022/10/18 09:14:25;;;;;;;8.80;3.70;;;18.60;99.90;;;;;;5078448;28;20024;-90
2022/10/18 09:16:53;;;;;;;11.45;4.35;;;18.70;99.90;;;;;;5078567;28;20123;-90
2022/10/18 09:19:56;;;;;;;10.15;4.45;;;18.80;99.90;;;;;;5079252;28;20032;-88
2022/10/18 09:22:49;;;;;;;8.70;3.95;;;18.80;99.90;;;;;;5079076;28;20039;-89
2022/10/18 09:25:35;;;;;;;7.15;3.83;;;18.80;99.90;;;;;;5078831;28;20024;-86
2022/10/18 09:28:49;;;;;;;8.13;4.07;;;18.80;99.90;;;;;;5107247;28;20048;-86
2022/10/18 09:31:19;;;;;;;3.80;2.60;;;18.70;99.90;;;;;;5059996;28;20031;-89
2022/10/18 09:34:07;;;;;;;7.15;3.05;;;18.70;99.90;;;;;;5098528;28;20492;-91
2022/10/18 09:36:36;;;;;;;8.05;3.22;;;18.70;99.90;;;;;;5099426;28;20110;-90
2022/10/18 09:39:15;;;;;;;6.82;2.30;;;18.60;99.90;;;;;;5098577;28;20024;-92
2022/10/18 09:41:48;;;;;;;6.25;2.70;;;18.60;99.90;;;;;;5098886;28;20019;-92
2022/10/18 09:44:34;;;;;;;5.25;2.28;;;18.60;99.90;;;;;;5091065;28;20024;-85
2022/10/18 09:47:13;;;;;;;7.50;2.42;;;18.60;99.90;;;;;;5115011;28;20031;-83
2022/10/18 09:49:45;;;;;;;5.97;3.00;;;18.60;99.90;;;;;;5081211;28;20031;-83
2022/10/18 09:52:40;;;;;;;6.45;2.97;;;18.70;99.90;;;;;;5097953;28;20031;-83
2022/10/18 09:55:29;;;;;;;6.22;2.60;;;18.70;99.90;;;;;;5079782;28;20032;-79
2022/10/18 09:58:01;;;;;;;5.88;2.47;;;18.80;99.90;;;;;;5076602;28;20088;-80
2022/10/18 10:00:33;;;;;;;3.95;2.47;;;18.90;99.90;;;;;;5085747;28;20028;-79
2022/10/18 10:03:11;;;;;;;9.70;2.60;;;19.00;99.90;;;;;;5094817;28;20500;-81
2022/10/18 10:05:36;;;;;;;10.30;2.53;;;19.10;99.90;;;;;;5091525;28;20072;-83
2022/10/18 10:08:03;;;;;;;4.72;2.45;;;19.10;99.90;;;;;;5096883;28;20020;-80
2022/10/18 10:10:31;;;;;;;7.68;4.03;;;19.20;99.90;;;;;;5088145;28;20031;-83
2022/10/18 10:13:05;;;;;;;9.85;3.38;;;19.30;99.90;;;;;;5096280;28;20499;-82
2022/10/18 10:15:32;;;;;;;9.95;2.92;;;19.40;99.90;;;;;;5096433;28;20468;-85
2022/10/18 10:18:05;;;;;;;5.72;3.17;;;19.40;99.90;;;;;;5095056;28;20107;-88
2022/10/18 10:20:42;;;;;;;8.15;2.72;;;19.40;99.90;;;;;;5088202;28;20062;-87
2022/10/18 10:23:23;;;;;;;6.40;2.45;;;19.40;99.90;;;;;;5090277;28;20472;-79
2022/10/18 10:25:55;;;;;;;5.00;2.88;;;19.50;99.90;;;;;;5093522;28;20027;-86
2022/10/18 10:28:33;;;;;;;3.80;2.38;;;19.50;99.90;;;;;;5097217;28;20038;-84
2022/10/18 10:31:25;;;;;;;4.75;2.50;;;19.70;99.90;;;;;;5084363;28;20259;-86
2022/10/18 10:34:00;;;;;;;6.45;2.63;;;19.90;99.90;;;;;;5093995;28;20038;-82
2022/10/18 10:36:28;;;;;;;4.13;1.95;;;19.90;99.90;;;;;;5098943;28;20443;-80
2022/10/18 10:39:12;;;;;;;5.38;2.17;;;19.90;99.90;;;;;;5094172;28;20038;-78
2022/10/18 10:41:40;;;;;;;4.65;1.98;;;20.00;99.90;;;;;;5113951;28;20031;-85
2022/10/18 10:44:15;;;;;;;6.53;2.20;;;20.20;99.90;;;;;;5088196;28;20361;-83
2022/10/18 10:46:40;;;;;;;3.05;2.00;;;20.30;99.90;;;;;;5107100;28;20024;-82
2022/10/18 10:49:20;;;;;;;10.48;4.13;;;20.30;99.90;;;;;;5099496;28;20034;-82
2022/10/18 10:51:55;;;;;;;8.25;2.88;;;20.30;99.90;;;;;;5093991;28;20483;-83
2022/10/18 10:54:23;;;;;;;14.77;8.10;;;20.40;99.90;;;;;;5097443;28;20044;-82
2022/10/18 10:57:11;;;;;;;4.85;2.67;;;20.40;99.90;;;;;;5115592;28;20027;-84
2022/10/18 10:59:48;;;;;;;6.32;2.38;;;20.40;99.90;;;;;;5111758;28;20026;-84
2022/10/18 11:02:14;;;;;;;5.35;2.10;;;20.50;99.90;;;;;;5096845;28;20036;-83
2022/10/18 11:04:41;;;;;;;5.88;2.30;;;20.40;99.90;;;;;;5096326;28;20049;-84
2022/10/18 11:07:30;;;;;;;5.03;2.55;;;20.30;99.90;;;;;;5096777;28;20027;-84
2022/10/18 11:09:57;;;;;;;9.30;3.63;;;20.30;99.90;;;;;;5109270;28;20020;-84
2022/10/18 11:12:46;;;;;;;5.20;2.60;;;20.20;99.90;;;;;;5078693;28;20032;-84
2022/10/18 11:15:35;;;;;;;2.97;1.95;;;20.20;99.90;;;;;;5096274;28;20038;-84
2022/10/18 11:18:18;;;;;;;3.60;2.10;;;20.30;99.90;;;;;;5096507;28;20020;-84
2022/10/18 11:20:49;;;;;;;5.57;2.13;;;20.30;99.90;;;;;;5093055;28;20035;-85
2022/10/18 11:23:16;;;;;;;3.85;1.27;;;20.30;99.90;;;;;;5114490;28;20023;-85
2022/10/18 11:26:09;;;;;;;2.85;1.50;;;20.40;99.90;;;;;;5095856;28;20028;-82
2022/10/18 11:28:35;;;;;;;1.80;1.48;;;20.50;99.90;;;;;;5095649;28;20024;-79
2022/10/18 11:31:26;;;;;;;2.05;1.20;;;20.50;99.90;;;;;;5096502;28;20030;-83
2022/10/18 11:34:16;;;;;;;2.50;1.20;;;20.60;99.90;;;;;;5095313;28;20035;-81
2022/10/18 11:36:58;;;;;;;1.92;1.00;;;20.60;99.90;;;;;;5095662;28;20020;-81
2022/10/18 11:40:11;;;;;;;3.17;1.25;;;20.60;99.90;;;;;;5114156;28;20050;-81
2022/10/18 11:43:00;;;;;;;1.38;1.15;;;20.60;99.90;;;;;;5040322;28;20039;-81
2022/10/18 11:45:44;;;;;;;2.13;0.98;;;20.70;99.90;;;;;;5082261;28;20111;-81
2022/10/18 11:48:37;;;;;;;1.38;0.93;;;20.70;99.90;;;;;;5113997;28;20023;-81
2022/10/18 11:51:18;;;;;;;1.80;1.00;;;20.70;99.90;;;;;;5114086;28;20024;-80
2022/10/18 11:54:17;;;;;;;3.95;1.20;;;20.80;99.90;;;;;;5113658;28;20032;-80
2022/10/18 11:57:10;;;;;;;2.55;1.17;;;20.70;99.90;;;;;;5113201;28;20035;-80
2022/10/18 12:00:12;;;;;;;2.08;1.02;;;20.90;99.90;;;;;;5095936;28;20035;-80
2022/10/18 12:02:44;;;;;;;1.70;1.15;;;21.10;99.90;;;;;;5095446;28;20024;-81
2022/10/18 12:05:11;;;;;;;1.25;1.00;;;21.40;99.90;;;;;;5095854;28;20137;-80
2022/10/18 12:07:48;;;;;;;1.23;1.00;;;21.80;99.90;;;;;;5095369;28;20429;-79
2022/10/18 12:10:17;;;;;;;1.23;1.10;;;22.00;99.90;;;;;;5095646;28;20024;-79
2022/10/18 12:12:57;;;;;;;1.33;1.00;;;22.50;99.90;;;;;;5095367;28;20032;-80
2022/10/18 12:15:25;;;;;;;3.20;1.00;;;22.80;99.90;;;;;;5114147;28;20031;-80
2022/10/18 12:18:16;;;;;;;1.02;0.70;;;22.70;99.90;;;;;;5113579;28;20337;-80
2022/10/18 12:20:57;;;;;;;1.60;1.10;;;22.50;99.90;;;;;;5083793;28;20036;-79
2022/10/18 12:23:28;;;;;;;3.97;1.60;;;22.50;99.90;;;;;;5096976;28;20123;-80
2022/10/18 12:26:00;;;;;;;3.92;1.60;;;22.30;99.90;;;;;;5117420;28;20024;-79
2022/10/18 12:28:25;;;;;;;;;;;22.10;99.90;;;;;;5100210;28;20085;-79
2022/10/18 12:31:37;;;;;;;2.22;1.38;;;22.00;99.90;;;;;;5099220;28;19917;-80
2022/10/18 12:34:16;;;;;;;3.03;1.63;;;21.80;99.90;;;;;;5045620;28;20043;-80
2022/10/18 12:36:54;;;;;;;1.75;1.48;;;21.80;99.90;;;;;;5099220;28;20060;-80
2022/10/18 12:39:38;;;;;;;3.20;1.77;;;21.80;99.90;;;;;;5099739;28;20118;-79
2022/10/18 12:42:04;;;;;;;1.65;1.55;;;21.80;99.90;;;;;;5099118;28;20063;-80
2022/10/18 12:44:32;;;;;;;3.03;2.00;;;21.80;99.90;;;;;;5099324;28;20027;-79
2022/10/18 12:47:00;;;;;;;2.85;1.92;;;21.80;99.90;;;;;;5099305;28;20426;-81
2022/10/18 12:49:35;;;;;;;2.55;1.65;;;21.80;99.90;;;;;;5099391;28;20023;-79
2022/10/18 12:52:17;;;;;;;4.38;1.80;;;21.80;99.90;;;;;;5099164;28;20026;-80
2022/10/18 12:55:08;;;;;;;1.70;1.60;;;21.80;99.90;;;;;;5098925;28;20046;-79
2022/10/18 12:57:52;;;;;;;2.60;1.92;;;21.70;99.90;;;;;;5098681;28;20032;-82
2022/10/18 13:00:30;;;;;;;1.65;1.55;;;21.70;99.90;;;;;;5099430;28;20384;-79
2022/10/18 13:03:08;;;;;;;2.10;1.70;;;21.60;99.90;;;;;;5098564;28;20031;-80
2022/10/18 13:05:46;;;;;;;2.28;1.95;;;21.70;99.90;;;;;;5098480;28;20026;-85
2022/10/18 13:08:30;;;;;;;4.18;1.70;;;21.70;99.90;;;;;;5098962;28;20027;-80